sensor_id;sensor_type;location;lat;lon;timestamp;pressure;altitude;pressure_sealevel;temperature;humidity
22753;BME280;11543;43.144;24.684;2022-09-30T00:01:20;98341.19;;;19.57;72.48
22753;BME280;11543;43.144;24.684;2022-09-30T00:03:46;98334.69;;;19.58;72.41
22753;BME280;11543;43.144;24.684;2022-09-30T00:06:13;98351.00;;;19.58;72.06
22753;BME280;11543;43.144;24.684;2022-09-30T00:08:39;98341.63;;;19.54;72.03
22753;BME280;11543;43.144;24.684;2022-09-30T00:11:07;98352.06;;;19.57;71.71
22753;BME280;11543;43.144;24.684;2022-09-30T00:13:36;98357.50;;;19.57;71.67
22753;BME280;11543;43.144;24.684;2022-09-30T00:16:03;98358.81;;;19.48;71.62
22753;BME280;11543;43.144;24.684;2022-09-30T00:18:28;98325.50;;;19.09;72.06
22753;BME280;11543;43.144;24.684;2022-09-30T00:20:55;98348.94;;;19.04;72.34
22753;BME280;11543;43.144;24.684;2022-09-30T00:23:21;98347.56;;;18.95;72.82
22753;BME280;11543;43.144;24.684;2022-09-30T00:25:47;98340.97;;;18.77;73.05
22753;BME280;11543;43.144;24.684;2022-09-30T00:28:14;98348.25;;;18.84;73.36
22753;BME280;11543;43.144;24.684;2022-09-30T00:30:40;98361.03;;;18.83;73.72
22753;BME280;11543;43.144;24.684;2022-09-30T00:33:05;98324.78;;;18.58;73.82
22753;BME280;11543;43.144;24.684;2022-09-30T00:35:31;98351.53;;;18.61;74.24
22753;BME280;11543;43.144;24.684;2022-09-30T00:37:56;98344.84;;;18.63;74.42
22753;BME280;11543;43.144;24.684;2022-09-30T00:40:23;98344.19;;;18.68;74.32
22753;BME280;11543;43.144;24.684;2022-09-30T00:42:49;98345.81;;;18.75;74.00
22753;BME280;11543;43.144;24.684;2022-09-30T00:45:15;98346.88;;;18.74;73.75
22753;BME280;11543;43.144;24.684;2022-09-30T00:47:55;98360.56;;;18.86;73.64
22753;BME280;11543;43.144;24.684;2022-09-30T00:53:14;98356.91;;;18.74;73.65
22753;BME280;11543;43.144;24.684;2022-09-30T00:58:17;98351.13;;;18.57;73.83
22753;BME280;11543;43.144;24.684;2022-09-30T01:00:45;98368.69;;;18.55;74.25
22753;BME280;11543;43.144;24.684;2022-09-30T01:03:10;98347.00;;;18.48;74.40
22753;BME280;11543;43.144;24.684;2022-09-30T01:05:36;98358.88;;;18.54;74.49
22753;BME280;11543;43.144;24.684;2022-09-30T01:08:04;98349.47;;;18.56;74.48
22753;BME280;11543;43.144;24.684;2022-09-30T01:10:31;98359.03;;;18.65;74.39
22753;BME280;11543;43.144;24.684;2022-09-30T01:12:57;98351.91;;;18.71;74.02
22753;BME280;11543;43.144;24.684;2022-09-30T01:15:52;98351.75;;;18.59;74.22
22753;BME280;11543;43.144;24.684;2022-09-30T01:18:37;98367.59;;;18.69;74.46
22753;BME280;11543;43.144;24.684;2022-09-30T01:23:36;98377.59;;;18.75;74.10
22753;BME280;11543;43.144;24.684;2022-09-30T01:26:31;98385.81;;;18.62;74.51
22753;BME280;11543;43.144;24.684;2022-09-30T01:29:13;98375.13;;;18.60;74.82
22753;BME280;11543;43.144;24.684;2022-09-30T01:40:10;98357.50;;;18.76;74.56
22753;BME280;11543;43.144;24.684;2022-09-30T01:42:46;98351.63;;;18.79;74.57
22753;BME280;11543;43.144;24.684;2022-09-30T01:45:17;98363.13;;;18.81;74.39
22753;BME280;11543;43.144;24.684;2022-09-30T01:47:54;98357.69;;;18.81;74.39
22753;BME280;11543;43.144;24.684;2022-09-30T01:50:32;98343.56;;;18.66;74.98
22753;BME280;11543;43.144;24.684;2022-09-30T01:53:02;98354.00;;;18.69;75.43
22753;BME280;11543;43.144;24.684;2022-09-30T01:55:39;98324.38;;;18.54;75.55
22753;BME280;11543;43.144;24.684;2022-09-30T01:58:18;98348.19;;;18.65;75.55
22753;BME280;11543;43.144;24.684;2022-09-30T02:00:48;98339.47;;;18.50;75.89
22753;BME280;11543;43.144;24.684;2022-09-30T02:03:25;98356.59;;;18.51;76.44
22753;BME280;11543;43.144;24.684;2022-09-30T02:06:06;98331.00;;;18.33;76.82
22753;BME280;11543;43.144;24.684;2022-09-30T02:13:39;98356.66;;;18.37;77.92
22753;BME280;11543;43.144;24.684;2022-09-30T02:16:09;98357.91;;;18.41;77.45
22753;BME280;11543;43.144;24.684;2022-09-30T02:18:44;98364.19;;;18.35;77.64
22753;BME280;11543;43.144;24.684;2022-09-30T02:21:14;98355.69;;;18.25;77.88
22753;BME280;11543;43.144;24.684;2022-09-30T02:23:43;98352.56;;;18.15;77.90
22753;BME280;11543;43.144;24.684;2022-09-30T02:26:20;98368.44;;;18.18;78.09
22753;BME280;11543;43.144;24.684;2022-09-30T02:28:51;98364.66;;;18.19;78.06
22753;BME280;11543;43.144;24.684;2022-09-30T02:31:20;98345.91;;;18.11;77.87
22753;BME280;11543;43.144;24.684;2022-09-30T02:34:10;98343.66;;;18.01;77.97
22753;BME280;11543;43.144;24.684;2022-09-30T02:36:43;98366.16;;;18.22;78.02
22753;BME280;11543;43.144;24.684;2022-09-30T02:39:21;98356.53;;;18.12;78.03
22753;BME280;11543;43.144;24.684;2022-09-30T02:41:54;98352.56;;;18.15;77.90
22753;BME280;11543;43.144;24.684;2022-09-30T02:44:23;98351.09;;;18.19;77.45
22753;BME280;11543;43.144;24.684;2022-09-30T02:47:11;98374.06;;;18.23;77.33
22753;BME280;11543;43.144;24.684;2022-09-30T02:50:06;98367.59;;;18.24;76.99
22753;BME280;11543;43.144;24.684;2022-09-30T02:58:18;98346.94;;;18.10;76.90
22753;BME280;11543;43.144;24.684;2022-09-30T03:00:46;98365.09;;;18.16;76.57
22753;BME280;11543;43.144;24.684;2022-09-30T03:03:29;98366.38;;;18.07;76.87
22753;BME280;11543;43.144;24.684;2022-09-30T03:05:56;98366.44;;;17.94;77.14
22753;BME280;11543;43.144;24.684;2022-09-30T03:08:28;98362.91;;;17.87;77.08
22753;BME280;11543;43.144;24.684;2022-09-30T03:10:54;98371.50;;;17.77;77.49
22753;BME280;11543;43.144;24.684;2022-09-30T03:29:44;98372.75;;;17.61;78.21
22753;BME280;11543;43.144;24.684;2022-09-30T03:32:31;98373.59;;;17.68;78.20
22753;BME280;11543;43.144;24.684;2022-09-30T03:35:15;98377.75;;;17.64;77.94
22753;BME280;11543;43.144;24.684;2022-09-30T03:40:44;98379.84;;;17.56;78.50
22753;BME280;11543;43.144;24.684;2022-09-30T03:45:58;98378.59;;;17.58;77.74
22753;BME280;11543;43.144;24.684;2022-09-30T03:48:26;98394.03;;;17.64;77.32
22753;BME280;11543;43.144;24.684;2022-09-30T03:50:53;98389.88;;;17.48;77.71
22753;BME280;11543;43.144;24.684;2022-09-30T03:53:20;98393.63;;;17.41;78.16
22753;BME280;11543;43.144;24.684;2022-09-30T03:55:50;98383.19;;;17.25;78.69
22753;BME280;11543;43.144;24.684;2022-09-30T03:58:18;98407.78;;;17.23;78.90
22753;BME280;11543;43.144;24.684;2022-09-30T04:00:48;98406.97;;;17.23;79.42
22753;BME280;11543;43.144;24.684;2022-09-30T04:03:15;98413.22;;;17.30;79.46
22753;BME280;11543;43.144;24.684;2022-09-30T04:05:41;98380.69;;;17.16;79.31
22753;BME280;11543;43.144;24.684;2022-09-30T04:08:07;98383.41;;;17.30;78.91
22753;BME280;11543;43.144;24.684;2022-09-30T04:10:32;98399.28;;;17.46;78.74
22753;BME280;11543;43.144;24.684;2022-09-30T04:12:58;98404.47;;;17.54;78.35
22753;BME280;11543;43.144;24.684;2022-09-30T04:15:24;98386.13;;;17.49;77.86
22753;BME280;11543;43.144;24.684;2022-09-30T04:17:51;98398.22;;;17.54;77.61
22753;BME280;11543;43.144;24.684;2022-09-30T04:20:17;98400.09;;;17.46;77.70
22753;BME280;11543;43.144;24.684;2022-09-30T04:22:42;98386.75;;;17.45;77.62
22753;BME280;11543;43.144;24.684;2022-09-30T04:25:08;98401.13;;;17.52;77.74
22753;BME280;11543;43.144;24.684;2022-09-30T04:27:33;98400.94;;;17.54;77.52
22753;BME280;11543;43.144;24.684;2022-09-30T04:29:59;98391.34;;;17.51;77.43
22753;BME280;11543;43.144;24.684;2022-09-30T04:32:24;98382.78;;;17.54;77.21
22753;BME280;11543;43.144;24.684;2022-09-30T04:34:56;98413.44;;;17.74;76.87
22753;BME280;11543;43.144;24.684;2022-09-30T04:37:21;98390.50;;;17.57;76.44
22753;BME280;11543;43.144;24.684;2022-09-30T04:39:46;98387.38;;;17.47;76.62
22753;BME280;11543;43.144;24.684;2022-09-30T04:42:12;98425.75;;;17.64;76.90
22753;BME280;11543;43.144;24.684;2022-09-30T04:44:37;98409.50;;;17.44;76.82
22753;BME280;11543;43.144;24.684;2022-09-30T04:47:03;98413.25;;;17.43;77.24
22753;BME280;11543;43.144;24.684;2022-09-30T04:49:29;98427.00;;;17.48;77.12
22753;BME280;11543;43.144;24.684;2022-09-30T04:51:55;98425.97;;;17.36;77.18
22753;BME280;11543;43.144;24.684;2022-09-30T04:54:21;98411.56;;;17.29;77.76
22753;BME280;11543;43.144;24.684;2022-09-30T04:56:46;98418.63;;;17.30;77.76
22753;BME280;11543;43.144;24.684;2022-09-30T04:59:12;98430.56;;;17.35;78.06
22753;BME280;11543;43.144;24.684;2022-09-30T05:01:39;98431.38;;;17.29;78.23
22753;BME280;11543;43.144;24.684;2022-09-30T05:04:06;98401.75;;;17.08;78.68
22753;BME280;11543;43.144;24.684;2022-09-30T05:06:32;98422.38;;;17.15;78.82
22753;BME280;11543;43.144;24.684;2022-09-30T05:08:58;98430.09;;;17.18;78.93
22753;BME280;11543;43.144;24.684;2022-09-30T05:11:24;98439.09;;;17.26;79.03
22753;BME280;11543;43.144;24.684;2022-09-30T05:13:50;98439.09;;;17.26;78.79
22753;BME280;11543;43.144;24.684;2022-09-30T05:16:16;98464.09;;;17.28;78.83
22753;BME280;11543;43.144;24.684;2022-09-30T05:18:42;98456.59;;;17.16;79.36
22753;BME280;11543;43.144;24.684;2022-09-30T05:21:11;98465.13;;;17.07;80.18
22753;BME280;11543;43.144;24.684;2022-09-30T05:23:38;98484.50;;;16.97;80.89
22753;BME280;11543;43.144;24.684;2022-09-30T05:26:03;98491.34;;;16.93;81.45
22753;BME280;11543;43.144;24.684;2022-09-30T05:28:29;98488.44;;;16.95;81.60
22753;BME280;11543;43.144;24.684;2022-09-30T05:31:00;98481.78;;;16.97;81.77
22753;BME280;11543;43.144;24.684;2022-09-30T05:33:27;98485.97;;;17.06;81.82
22753;BME280;11543;43.144;24.684;2022-09-30T05:36:02;98490.16;;;17.15;81.81
22753;BME280;11543;43.144;24.684;2022-09-30T05:38:29;98475.38;;;17.25;81.60
22753;BME280;11543;43.144;24.684;2022-09-30T05:40:54;98485.44;;;17.44;81.24
22753;BME280;11543;43.144;24.684;2022-09-30T05:43:20;98496.28;;;17.44;81.21
22753;BME280;11543;43.144;24.684;2022-09-30T05:45:55;98485.84;;;17.41;81.56
22753;BME280;11543;43.144;24.684;2022-09-30T05:48:22;98492.31;;;17.53;81.45
22753;BME280;11543;43.144;24.684;2022-09-30T05:50:53;98472.50;;;17.46;81.35
22753;BME280;11543;43.144;24.684;2022-09-30T05:53:21;98499.63;;;17.59;81.40
22753;BME280;11543;43.144;24.684;2022-09-30T05:55:50;98492.94;;;17.55;81.60
22753;BME280;11543;43.144;24.684;2022-09-30T05:58:16;98503.38;;;17.65;81.80
22753;BME280;11543;43.144;24.684;2022-09-30T06:00:44;98508.84;;;17.71;81.57
22753;BME280;11543;43.144;24.684;2022-09-30T06:03:10;98510.91;;;17.69;81.54
22753;BME280;11543;43.144;24.684;2022-09-30T06:05:36;98495.47;;;17.76;81.42
22753;BME280;11543;43.144;24.684;2022-09-30T06:08:03;98513.00;;;17.94;81.06
22753;BME280;11543;43.144;24.684;2022-09-30T06:10:28;98507.16;;;17.97;81.03
22753;BME280;11543;43.144;24.684;2022-09-30T06:12:54;98503.38;;;18.11;81.11
22753;BME280;11543;43.144;24.684;2022-09-30T06:15:19;98521.34;;;18.25;80.64
22753;BME280;11543;43.144;24.684;2022-09-30T06:17:51;98492.50;;;18.11;80.48
22753;BME280;11543;43.144;24.684;2022-09-30T06:20:16;98520.06;;;18.34;80.01
22753;BME280;11543;43.144;24.684;2022-09-30T06:22:42;98517.09;;;18.42;80.40
22753;BME280;11543;43.144;24.684;2022-09-30T06:25:08;98519.19;;;18.40;80.54
22753;BME280;11543;43.144;24.684;2022-09-30T06:27:34;98533.38;;;18.56;80.39
22753;BME280;11543;43.144;24.684;2022-09-30T06:29:59;98526.69;;;18.65;79.72
22753;BME280;11543;43.144;24.684;2022-09-30T06:32:24;98508.09;;;18.62;79.33
22753;BME280;11543;43.144;24.684;2022-09-30T06:34:51;98542.44;;;18.94;80.14
22753;BME280;11543;43.144;24.684;2022-09-30T06:37:20;98512.81;;;18.80;80.38
22753;BME280;11543;43.144;24.684;2022-09-30T06:39:46;98509.88;;;18.81;79.40
22753;BME280;11543;43.144;24.684;2022-09-30T06:42:11;98522.38;;;18.95;79.06
22753;BME280;11543;43.144;24.684;2022-09-30T06:44:36;98526.91;;;19.15;78.97
22753;BME280;11543;43.144;24.684;2022-09-30T06:47:02;98548.06;;;19.44;78.57
22753;BME280;11543;43.144;24.684;2022-09-30T06:49:27;98535.50;;;19.43;78.75
22753;BME280;11543;43.144;24.684;2022-09-30T06:51:53;98533.50;;;19.63;79.17
22753;BME280;11543;43.144;24.684;2022-09-30T06:54:18;98543.50;;;19.69;78.98
22753;BME280;11543;43.144;24.684;2022-09-30T06:56:47;98545.25;;;19.89;78.76
22753;BME280;11543;43.144;24.684;2022-09-30T06:59:13;98547.28;;;20.00;78.96
22753;BME280;11543;43.144;24.684;2022-09-30T07:01:42;98549.78;;;20.01;78.56
22753;BME280;11543;43.144;24.684;2022-09-30T07:04:11;98561.81;;;20.12;78.14
22753;BME280;11543;43.144;24.684;2022-09-30T07:06:37;98564.78;;;20.11;77.66
22753;BME280;11543;43.144;24.684;2022-09-30T07:09:05;98574.72;;;20.23;77.54
22753;BME280;11543;43.144;24.684;2022-09-30T07:11:30;98571.53;;;20.26;77.36
22753;BME280;11543;43.144;24.684;2022-09-30T07:13:56;98559.59;;;20.27;77.28
22753;BME280;11543;43.144;24.684;2022-09-30T07:16:22;98571.44;;;20.40;77.15
22753;BME280;11543;43.144;24.684;2022-09-30T07:18:49;98563.22;;;20.46;76.63
22753;BME280;11543;43.144;24.684;2022-09-30T07:21:16;98556.84;;;20.52;76.72
22753;BME280;11543;43.144;24.684;2022-09-30T07:23:45;98539.28;;;20.48;76.38
22753;BME280;11543;43.144;24.684;2022-09-30T07:26:15;98568.75;;;20.76;75.79
22753;BME280;11543;43.144;24.684;2022-09-30T07:28:42;98542.16;;;20.72;75.63
22753;BME280;11543;43.144;24.684;2022-09-30T07:31:16;98553.94;;;20.90;75.55
22753;BME280;11543;43.144;24.684;2022-09-30T07:33:44;98548.31;;;21.04;75.52
22753;BME280;11543;43.144;24.684;2022-09-30T07:36:11;98562.50;;;21.42;73.66
22753;BME280;11543;43.144;24.684;2022-09-30T07:38:39;98545.75;;;21.69;70.08
22753;BME280;11543;43.144;24.684;2022-09-30T07:41:07;98554.16;;;22.09;68.29
22753;BME280;11543;43.144;24.684;2022-09-30T07:43:36;98576.53;;;22.64;65.64
22753;BME280;11543;43.144;24.684;2022-09-30T07:46:07;98535.38;;;22.82;62.71
22753;BME280;11543;43.144;24.684;2022-09-30T07:48:34;98580.78;;;23.35;62.44
22753;BME280;11543;43.144;24.684;2022-09-30T07:51:14;98572.56;;;23.35;63.05
22753;BME280;11543;43.144;24.684;2022-09-30T07:53:42;98585.41;;;23.46;62.40
22753;BME280;11543;43.144;24.684;2022-09-30T07:56:09;98569.47;;;23.43;62.63
22753;BME280;11543;43.144;24.684;2022-09-30T07:58:34;98583.00;;;23.62;62.50
22753;BME280;11543;43.144;24.684;2022-09-30T08:01:01;98585.34;;;23.70;61.34
22753;BME280;11543;43.144;24.684;2022-09-30T08:03:27;98577.13;;;23.70;61.88
22753;BME280;11543;43.144;24.684;2022-09-30T08:05:53;98595.00;;;23.89;61.27
22753;BME280;11543;43.144;24.684;2022-09-30T08:08:18;98592.34;;;23.94;59.96
22753;BME280;11543;43.144;24.684;2022-09-30T08:10:44;98581.72;;;23.98;60.20
22753;BME280;11543;43.144;24.684;2022-09-30T08:13:10;98592.84;;;24.08;60.64
22753;BME280;11543;43.144;24.684;2022-09-30T08:15:38;98560.63;;;23.98;60.68
22753;BME280;11543;43.144;24.684;2022-09-30T08:18:04;98584.75;;;24.30;60.25
22753;BME280;11543;43.144;24.684;2022-09-30T08:20:30;98568.78;;;24.27;59.58
22753;BME280;11543;43.144;24.684;2022-09-30T08:22:56;98576.94;;;24.38;59.51
22753;BME280;11543;43.144;24.684;2022-09-30T08:25:23;98586.56;;;24.58;58.74
22753;BME280;11543;43.144;24.684;2022-09-30T08:27:49;98586.63;;;24.63;59.29
22753;BME280;11543;43.144;24.684;2022-09-30T08:30:15;98584.50;;;24.87;55.95
22753;BME280;11543;43.144;24.684;2022-09-30T08:32:40;98567.13;;;24.98;53.80
22753;BME280;11543;43.144;24.684;2022-09-30T08:35:06;98584.50;;;25.25;53.55
22753;BME280;11543;43.144;24.684;2022-09-30T08:37:32;98566.31;;;25.19;50.36
22753;BME280;11543;43.144;24.684;2022-09-30T08:39:57;98569.75;;;25.31;49.90
22753;BME280;11543;43.144;24.684;2022-09-30T08:51:54;98602.41;;;26.03;49.93
22753;BME280;11543;43.144;24.684;2022-09-30T08:54:23;98595.53;;;26.33;47.90
22753;BME280;11543;43.144;24.684;2022-09-30T08:56:50;98582.16;;;26.47;47.69
22753;BME280;11543;43.144;24.684;2022-09-30T09:02:00;98598.09;;;26.87;46.82
22753;BME280;11543;43.144;24.684;2022-09-30T09:04:27;98586.88;;;26.93;45.63
22753;BME280;11543;43.144;24.684;2022-09-30T09:12:45;98606.16;;;27.56;43.95
22753;BME280;11543;43.144;24.684;2022-09-30T09:15:37;98607.97;;;27.98;41.15
22753;BME280;11543;43.144;24.684;2022-09-30T09:18:27;98614.59;;;28.22;42.06
22753;BME280;11543;43.144;24.684;2022-09-30T09:20:55;98611.88;;;28.42;40.89
22753;BME280;11543;43.144;24.684;2022-09-30T09:23:22;98609.94;;;28.43;41.68
22753;BME280;11543;43.144;24.684;2022-09-30T09:25:49;98607.47;;;28.41;41.18
22753;BME280;11543;43.144;24.684;2022-09-30T09:30:52;98621.81;;;28.64;40.35
22753;BME280;11543;43.144;24.684;2022-09-30T09:33:35;98606.91;;;28.75;39.16
22753;BME280;11543;43.144;24.684;2022-09-30T09:44:58;98619.94;;;29.59;36.73
22753;BME280;11543;43.144;24.684;2022-09-30T09:47:26;98610.00;;;29.58;36.55
22753;BME280;11543;43.144;24.684;2022-09-30T09:49:57;98623.78;;;29.68;35.22
22753;BME280;11543;43.144;24.684;2022-09-30T09:52:58;98630.94;;;29.74;34.04
22753;BME280;11543;43.144;24.684;2022-09-30T09:55:27;98625.34;;;29.85;34.14
22753;BME280;11543;43.144;24.684;2022-09-30T09:58:11;98621.91;;;30.03;33.42
22753;BME280;11543;43.144;24.684;2022-09-30T10:00:40;98619.63;;;30.15;32.75
22753;BME280;11543;43.144;24.684;2022-09-30T10:08:27;98618.56;;;30.79;32.05
22753;BME280;11543;43.144;24.684;2022-09-30T10:10:58;98629.28;;;30.86;32.16
22753;BME280;11543;43.144;24.684;2022-09-30T10:13:28;98634.44;;;30.97;32.51
22753;BME280;11543;43.144;24.684;2022-09-30T10:15:59;98628.38;;;30.95;32.07
22753;BME280;11543;43.144;24.684;2022-09-30T10:18:28;98621.75;;;30.91;31.97
22753;BME280;11543;43.144;24.684;2022-09-30T10:21:20;98621.88;;;31.05;31.18
22753;BME280;11543;43.144;24.684;2022-09-30T10:23:46;98613.03;;;31.03;31.79
22753;BME280;11543;43.144;24.684;2022-09-30T10:26:21;98621.53;;;31.12;32.18
22753;BME280;11543;43.144;24.684;2022-09-30T10:29:00;98624.41;;;31.01;31.05
22753;BME280;11543;43.144;24.684;2022-09-30T10:34:08;98619.94;;;31.05;31.69
22753;BME280;11543;43.144;24.684;2022-09-30T10:36:39;98622.63;;;31.16;30.99
22753;BME280;11543;43.144;24.684;2022-09-30T10:39:23;98634.44;;;31.26;31.96
22753;BME280;11543;43.144;24.684;2022-09-30T10:42:06;98625.78;;;31.33;31.20
22753;BME280;11543;43.144;24.684;2022-09-30T10:47:08;98612.44;;;31.35;30.99
22753;BME280;11543;43.144;24.684;2022-09-30T10:49:45;98620.03;;;31.48;31.14
22753;BME280;11543;43.144;24.684;2022-09-30T10:52:22;98601.28;;;31.40;30.71
22753;BME280;11543;43.144;24.684;2022-09-30T10:54:53;98596.88;;;31.39;31.40
22753;BME280;11543;43.144;24.684;2022-09-30T10:57:23;98602.34;;;31.44;31.07
22753;BME280;11543;43.144;24.684;2022-09-30T10:59:51;98589.13;;;31.36;32.37
22753;BME280;11543;43.144;24.684;2022-09-30T11:02:28;98607.16;;;31.57;31.11
22753;BME280;11543;43.144;24.684;2022-09-30T11:07:40;98606.97;;;31.91;29.08
22753;BME280;11543;43.144;24.684;2022-09-30T11:10:44;98614.81;;;32.08;29.40
22753;BME280;11543;43.144;24.684;2022-09-30T11:14:16;98620.09;;;32.05;30.15
22753;BME280;11543;43.144;24.684;2022-09-30T11:16:23;98623.34;;;32.12;30.48
22753;BME280;11543;43.144;24.684;2022-09-30T11:19:29;98618.41;;;32.09;30.01
22753;BME280;11543;43.144;24.684;2022-09-30T11:24:56;98601.75;;;32.09;29.25
22753;BME280;11543;43.144;24.684;2022-09-30T11:27:54;98612.91;;;32.22;29.23
22753;BME280;11543;43.144;24.684;2022-09-30T11:41:57;98615.91;;;32.45;29.36
22753;BME280;11543;43.144;24.684;2022-09-30T11:44:40;98608.91;;;32.47;28.98
22753;BME280;11543;43.144;24.684;2022-09-30T11:47:26;98606.66;;;32.49;29.85
22753;BME280;11543;43.144;24.684;2022-09-30T11:56:17;98600.78;;;32.83;28.38
22753;BME280;11543;43.144;24.684;2022-09-30T11:58:46;98594.88;;;33.04;27.88
22753;BME280;11543;43.144;24.684;2022-09-30T12:01:25;98611.03;;;33.29;27.99
22753;BME280;11543;43.144;24.684;2022-09-30T12:07:04;98612.38;;;33.45;27.75
22753;BME280;11543;43.144;24.684;2022-09-30T12:09:35;98605.41;;;33.34;27.70
22753;BME280;11543;43.144;24.684;2022-09-30T12:12:06;98608.97;;;33.21;28.20
22753;BME280;11543;43.144;24.684;2022-09-30T12:14:43;98605.78;;;33.14;27.20
22753;BME280;11543;43.144;24.684;2022-09-30T12:19:47;98629.25;;;33.08;27.08
22753;BME280;11543;43.144;24.684;2022-09-30T12:22:17;98622.75;;;32.99;27.31
22753;BME280;11543;43.144;24.684;2022-09-30T12:24:44;98606.13;;;32.80;28.15
22753;BME280;11543;43.144;24.684;2022-09-30T12:27:38;98627.53;;;32.79;27.96
22753;BME280;11543;43.144;24.684;2022-09-30T12:30:19;98617.81;;;32.63;28.02
22753;BME280;11543;43.144;24.684;2022-09-30T12:47:25;98641.84;;;32.54;28.02
22753;BME280;11543;43.144;24.684;2022-09-30T12:49:58;98622.56;;;32.06;29.00
22753;BME280;11543;43.144;24.684;2022-09-30T12:52:25;98637.03;;;32.03;29.74
22753;BME280;11543;43.144;24.684;2022-09-30T12:54:59;98628.50;;;31.81;29.62
22753;BME280;11543;43.144;24.684;2022-09-30T12:57:32;98624.91;;;31.80;29.66
22753;BME280;11543;43.144;24.684;2022-09-30T13:02:41;98630.59;;;31.89;28.70
22753;BME280;11543;43.144;24.684;2022-09-30T13:13:24;98641.31;;;31.77;30.09
22753;BME280;11543;43.144;24.684;2022-09-30T13:15:51;98649.13;;;31.75;30.12
22753;BME280;11543;43.144;24.684;2022-09-30T13:44:59;98668.22;;;31.52;31.10
22753;BME280;11543;43.144;24.684;2022-09-30T13:47:34;98676.56;;;31.52;31.29
22753;BME280;11543;43.144;24.684;2022-09-30T13:52:40;98663.09;;;31.64;30.38
22753;BME280;11543;43.144;24.684;2022-09-30T13:55:20;98652.59;;;31.61;29.60
22753;BME280;11543;43.144;24.684;2022-09-30T14:00:40;98669.81;;;31.58;30.20
22753;BME280;11543;43.144;24.684;2022-09-30T14:03:18;98666.53;;;31.56;30.47
22753;BME280;11543;43.144;24.684;2022-09-30T14:06:26;98652.19;;;31.49;30.11
22753;BME280;11543;43.144;24.684;2022-09-30T14:11:57;98656.50;;;31.36;31.05
22753;BME280;11543;43.144;24.684;2022-09-30T14:17:24;98666.09;;;31.68;29.86
22753;BME280;11543;43.144;24.684;2022-09-30T14:20:02;98670.88;;;31.62;29.75
22753;BME280;11543;43.144;24.684;2022-09-30T14:22:35;98680.75;;;31.74;29.50
22753;BME280;11543;43.144;24.684;2022-09-30T14:25:01;98675.13;;;31.79;29.85
22753;BME280;11543;43.144;24.684;2022-09-30T14:30:39;98685.78;;;31.72;29.37
22753;BME280;11543;43.144;24.684;2022-09-30T14:33:22;98684.16;;;31.65;29.24
22753;BME280;11543;43.144;24.684;2022-09-30T14:35:51;98693.19;;;31.52;30.19
22753;BME280;11543;43.144;24.684;2022-09-30T14:38:20;98706.66;;;31.40;30.10
22753;BME280;11543;43.144;24.684;2022-09-30T14:40:49;98696.97;;;31.38;29.25
22753;BME280;11543;43.144;24.684;2022-09-30T14:43:20;98691.84;;;31.21;29.70
22753;BME280;11543;43.144;24.684;2022-09-30T14:45:49;98701.28;;;31.20;30.20
22753;BME280;11543;43.144;24.684;2022-09-30T14:48:20;98707.50;;;31.06;30.25
22753;BME280;11543;43.144;24.684;2022-09-30T14:50:52;98711.97;;;31.02;30.52
22753;BME280;11543;43.144;24.684;2022-09-30T14:53:35;98706.47;;;30.97;30.16
22753;BME280;11543;43.144;24.684;2022-09-30T14:56:03;98707.94;;;30.90;30.67
22753;BME280;11543;43.144;24.684;2022-09-30T14:58:39;98725.38;;;30.90;31.17
22753;BME280;11543;43.144;24.684;2022-09-30T15:01:14;98716.00;;;30.86;31.29
22753;BME280;11543;43.144;24.684;2022-09-30T15:03:44;98716.03;;;30.81;31.04
22753;BME280;11543;43.144;24.684;2022-09-30T15:06:32;98719.94;;;30.80;31.61
22753;BME280;11543;43.144;24.684;2022-09-30T15:11:44;98716.75;;;30.58;32.29
22753;BME280;11543;43.144;24.684;2022-09-30T15:14:18;98731.19;;;30.60;32.00
22753;BME280;11543;43.144;24.684;2022-09-30T15:16:53;98741.72;;;30.53;31.89
22753;BME280;11543;43.144;24.684;2022-09-30T15:19:24;98735.13;;;30.43;32.80
22753;BME280;11543;43.144;24.684;2022-09-30T15:21:53;98735.19;;;30.38;32.72
22753;BME280;11543;43.144;24.684;2022-09-30T15:24:21;98732.97;;;30.30;32.94
22753;BME280;11543;43.144;24.684;2022-09-30T15:26:48;98747.66;;;30.31;32.59
22753;BME280;11543;43.144;24.684;2022-09-30T15:29:15;98747.41;;;30.22;33.31
22753;BME280;11543;43.144;24.684;2022-09-30T15:32:02;98754.06;;;30.21;33.78
22753;BME280;11543;43.144;24.684;2022-09-30T15:34:29;98751.94;;;30.08;33.98
22753;BME280;11543;43.144;24.684;2022-09-30T15:36:58;98751.38;;;30.01;34.46
22753;BME280;11543;43.144;24.684;2022-09-30T15:39:32;98756.44;;;29.84;34.66
22753;BME280;11543;43.144;24.684;2022-09-30T15:47:56;98759.03;;;29.44;35.13
22753;BME280;11543;43.144;24.684;2022-09-30T15:50:50;98748.25;;;29.28;35.33
22753;BME280;11543;43.144;24.684;2022-09-30T15:53:31;98760.44;;;29.11;35.61
22753;BME280;11543;43.144;24.684;2022-09-30T15:56:29;98783.66;;;28.95;35.95
22753;BME280;11543;43.144;24.684;2022-09-30T15:58:59;98780.56;;;28.76;36.31
22753;BME280;11543;43.144;24.684;2022-09-30T16:01:31;98762.56;;;28.48;36.59
22753;BME280;11543;43.144;24.684;2022-09-30T16:04:05;98776.34;;;28.33;36.84
22753;BME280;11543;43.144;24.684;2022-09-30T16:11:56;98778.91;;;27.87;38.14
22753;BME280;11543;43.144;24.684;2022-09-30T16:14:26;98783.53;;;27.77;38.38
22753;BME280;11543;43.144;24.684;2022-09-30T16:16:55;98799.00;;;27.78;38.01
22753;BME280;11543;43.144;24.684;2022-09-30T16:19:23;98791.19;;;27.65;37.89
22753;BME280;11543;43.144;24.684;2022-09-30T16:21:50;98806.06;;;27.64;37.94
22753;BME280;11543;43.144;24.684;2022-09-30T16:27:00;98802.88;;;27.45;38.35
22753;BME280;11543;43.144;24.684;2022-09-30T16:29:40;98787.91;;;27.31;38.53
22753;BME280;11543;43.144;24.684;2022-09-30T16:32:08;98816.03;;;27.33;38.79